Time;durP1;ratioP1;P1;durP2;ratioP2;P2;SDS_P1;SDS_P2;PMS_P1;PMS_P2;Temp;Humidity;BMP_temperature;BMP_pressure;BME280_temperature;BME280_humidity;BME280_pressure;Samples;Min_cycle;Max_cycle;Signal;HPM_P1;HPM_P2
2021/05/27 00:02:11;;;;;;;6.33;2.17;;;;;;;-144.99;100.00;52391.03;5069313;28;20296;-61
2021/05/27 00:04:43;;;;;;;3.67;1.80;;;;;;;-144.99;100.00;52423.63;5069168;28;20197;-63
2021/05/27 00:07:09;;;;;;;3.53;1.40;;;;;;;-144.99;100.00;52382.88;5068822;28;20444;-62
2021/05/27 02:14:03;;;;;;;6.43;1.50;;;;;;;-144.99;100.00;52354.34;5015345;28;20206;-57
2021/05/27 02:16:32;;;;;;;5.73;1.83;;;;;;;-144.99;100.00;52362.50;5008508;28;20211;-57
2021/05/27 02:19:04;;;;;;;5.93;1.13;;;;;;;-144.99;100.00;52386.94;5011589;28;20215;-59
2021/05/27 02:21:33;;;;;;;2.57;1.10;;;;;;;-144.99;100.00;52407.31;5011862;28;20305;-60
2021/05/27 02:24:01;;;;;;;4.43;1.83;;;;;;;-144.99;100.00;52386.94;5011555;28;20238;-60
2021/05/27 02:26:28;;;;;;;2.93;1.37;;;;;;;-144.99;99.49;52391.03;5011564;28;20207;-59
2021/05/27 02:28:55;;;;;;;3.67;1.30;;;;;;;-144.99;99.17;52384.91;5011282;28;20361;-58
2021/05/27 02:31:23;;;;;;;4.40;2.23;;;;;;;-144.99;98.95;52362.50;5009522;28;20703;-58
2021/05/27 02:33:50;;;;;;;3.53;1.17;;;;;;;-144.99;99.12;52366.56;5013111;28;20660;-59
2021/05/27 02:36:23;;;;;;;2.47;1.10;;;;;;;-144.99;99.82;52403.25;5013666;28;20672;-57
2021/05/27 02:38:50;;;;;;;4.60;1.97;;;;;;;-144.99;99.48;52378.78;5006614;28;20234;-57
2021/05/27 02:41:16;;;;;;;12.47;1.87;;;;;;;-144.99;99.82;52415.47;5002975;28;20312;-60
2021/05/27 02:43:42;;;;;;;6.30;1.20;;;;;;;-144.99;99.95;52427.72;5011008;28;20313;-60
2021/05/27 02:46:11;;;;;;;2.63;1.20;;;;;;;-144.99;100.00;52397.13;5011249;28;20214;-61
2021/05/27 02:48:38;;;;;;;4.90;1.50;;;;;;;-144.99;100.00;52415.47;5013289;28;20678;-59
2021/05/27 02:51:10;;;;;;;5.93;1.10;;;;;;;-144.99;100.00;52388.97;5011773;28;20206;-60
2021/05/27 02:53:36;;;;;;;5.10;1.47;;;;;;;-144.99;100.00;52370.63;5010841;28;20218;-60
2021/05/27 02:56:05;;;;;;;1.83;1.10;;;;;;;-144.99;100.00;52399.19;5011266;28;20210;-60
2021/05/27 02:58:34;;;;;;;3.93;1.10;;;;;;;-144.99;100.00;52419.56;5010599;28;20625;-60
2021/05/27 03:01:03;;;;;;;2.77;1.13;;;;;;;-144.99;100.00;52415.47;5011770;28;20231;-60
2021/05/27 03:03:32;;;;;;;2.30;1.00;;;;;;;-144.99;100.00;52384.91;5015463;28;20211;-60
2021/05/27 03:06:00;;;;;;;1.83;1.00;;;;;;;-144.99;100.00;52376.75;5016644;28;20221;-60
2021/05/27 03:08:27;;;;;;;2.80;1.20;;;;;;;-144.99;100.00;52378.78;5007817;28;20235;-59
2021/05/27 03:10:54;;;;;;;0.77;0.63;;;;;;;-144.99;100.00;52395.09;5015219;28;20204;-59
2021/05/27 03:13:23;;;;;;;2.50;1.07;;;;;;;-144.99;100.00;52407.31;5019713;28;20203;-60
2021/05/27 03:15:52;;;;;;;2.70;1.30;;;;;;;-144.99;100.00;52386.94;5010799;28;20207;-58
2021/05/27 03:18:18;;;;;;;1.90;1.13;;;;;;;-144.99;100.00;52378.78;5010540;28;20254;-57
2021/05/27 03:20:48;;;;;;;3.13;1.40;;;;;;;-144.99;100.00;52370.63;5010831;28;20241;-59
2021/05/27 03:23:15;;;;;;;3.70;1.37;;;;;;;-144.99;100.00;52370.63;5010675;28;20211;-57
2021/05/27 03:25:41;;;;;;;1.50;1.00;;;;;;;-144.99;100.00;52391.03;5023873;28;20228;-58
2021/05/27 03:28:10;;;;;;;6.20;1.60;;;;;;;-144.99;100.00;52419.56;5011022;28;20297;-57
2021/05/27 03:30:36;;;;;;;6.07;0.80;;;;;;;-144.99;100.00;52395.09;5010983;28;20317;-57
2021/05/27 03:33:03;;;;;;;2.10;1.23;;;;;;;-144.99;100.00;52407.31;5013178;28;20431;-56
2021/05/27 03:35:29;;;;;;;11.10;1.30;;;;;;;-144.99;100.00;52378.78;5011013;28;20214;-58
2021/05/27 03:38:00;;;;;;;1.23;1.07;;;;;;;-144.99;100.00;52370.63;5009763;28;20235;-61
2021/05/27 03:40:30;;;;;;;2.27;1.37;;;;;;;-144.99;100.00;52382.88;5010383;28;20241;-58
2021/05/27 03:43:00;;;;;;;4.03;2.47;;;;;;;-144.99;100.00;52382.88;5009577;28;20220;-58
2021/05/27 03:45:30;;;;;;;5.07;1.63;;;;;;;-144.99;100.00;52376.75;5011243;28;20219;-58
2021/05/27 03:47:57;;;;;;;3.50;1.97;;;;;;;-144.99;100.00;52350.25;5011972;28;20231;-58
2021/05/27 03:50:28;;;;;;;5.97;2.07;;;;;;;-144.99;100.00;52382.88;5010297;28;20211;-59
2021/05/27 03:52:58;;;;;;;5.50;2.17;;;;;;;-144.99;100.00;52368.59;4997025;28;20211;-57
2021/05/27 03:55:25;;;;;;;4.93;1.90;;;;;;;-144.99;100.00;52386.94;4997686;28;20211;-57
2021/05/27 03:57:55;;;;;;;6.73;4.10;;;;;;;-144.99;100.00;52368.59;5009222;28;20235;-58
2021/05/27 04:00:42;;;;;;;3.80;1.43;;;;;;;-144.99;100.00;52378.78;5009914;28;20291;-58
2021/05/27 04:03:08;;;;;;;7.10;2.10;;;;;;;-144.99;100.00;52348.22;5012885;28;20203;-60
2021/05/27 04:08:22;;;;;;;4.40;1.90;;;;;;;-144.99;100.00;52429.75;5007590;28;20333;-59
2021/05/27 04:10:48;;;;;;;6.17;2.27;;;;;;;-144.99;100.00;52407.31;5008110;28;20204;-62
2021/05/27 04:13:16;;;;;;;10.33;2.27;;;;;;;-144.99;100.00;52395.09;5017965;28;20210;-61
2021/05/27 04:15:43;;;;;;;7.63;1.80;;;;;;;-144.99;100.00;52407.31;5009970;28;20274;-62
2021/05/27 04:18:11;;;;;;;8.97;2.23;;;;;;;-144.99;100.00;52386.94;5009447;28;20604;-59
2021/05/27 04:20:38;;;;;;;3.97;1.57;;;;;;;-144.99;100.00;52391.03;5009688;28;20230;-57
2021/05/27 04:23:10;;;;;;;6.87;1.70;;;;;;;-144.99;100.00;52354.34;5009610;28;20214;-60
2021/05/27 04:25:39;;;;;;;6.50;1.97;;;;;;;-144.99;100.00;52384.91;5009502;28;20219;-60
2021/05/27 04:28:06;;;;;;;5.40;2.03;;;;;;;-144.99;100.00;52370.63;5009016;28;20280;-60
2021/05/27 04:33:18;;;;;;;3.67;2.00;;;;;;;-144.99;100.00;52376.75;5010860;28;20673;-59
2021/05/27 04:35:46;;;;;;;5.70;1.87;;;;;;;-144.99;100.00;52431.78;5011038;28;20207;-59
2021/05/27 04:38:14;;;;;;;8.00;3.43;;;;;;;-144.99;100.00;52386.94;5010094;28;20230;-59
2021/05/27 04:40:46;;;;;;;5.67;1.87;;;;;;;-144.99;100.00;52372.69;5009942;28;20233;-59
2021/05/27 04:43:17;;;;;;;5.00;1.90;;;;;;;-144.99;100.00;52423.63;5009320;28;20214;-60
2021/05/27 04:45:47;;;;;;;5.10;1.93;;;;;;;-144.99;100.00;52378.78;5009851;28;20211;-60
2021/05/27 04:48:16;;;;;;;9.73;1.97;;;;;;;-144.99;100.00;52366.56;5009707;28;20630;-59
2021/05/27 04:50:43;;;;;;;4.00;1.93;;;;;;;-144.99;100.00;52370.63;5009666;28;20680;-59
2021/05/27 04:53:14;;;;;;;5.47;1.97;;;;;;;-144.99;100.00;52366.56;5009962;28;20297;-60
2021/05/27 04:55:46;;;;;;;4.47;1.93;;;;;;;-144.99;100.00;52444.03;5009676;28;20203;-57
2021/05/27 04:58:16;;;;;;;11.07;2.47;;;;;;;-144.99;100.00;52350.25;5009373;28;20268;-58
2021/05/27 05:00:45;;;;;;;9.63;2.77;;;;;;;-144.99;100.00;52395.09;5009505;28;20233;-59
2021/05/27 05:03:12;;;;;;;10.50;2.83;;;;;;;-144.99;100.00;52366.56;5012482;28;20203;-57
2021/05/27 05:05:38;;;;;;;8.30;1.80;;;;;;;-144.99;100.00;52372.69;5017751;28;20215;-58
2021/05/27 05:08:05;;;;;;;4.47;2.80;;;;;;;-144.99;100.00;52358.41;5008557;28;20658;-63
2021/05/27 05:10:32;;;;;;;4.97;2.20;;;;;;;-144.99;100.00;52386.94;5014333;28;20202;-58
2021/05/27 05:12:59;;;;;;;4.97;2.20;;;;;;;-144.99;100.00;52317.66;5016086;28;20505;-57
2021/05/27 05:15:27;;;;;;;15.30;5.87;;;;;;;-144.99;100.00;52419.56;5009829;28;20211;-58
2021/05/27 05:17:54;;;;;;;2.93;1.63;;;;;;;-144.99;100.00;52399.19;5009034;28;20253;-58
2021/05/27 05:20:24;;;;;;;5.70;1.87;;;;;;;-144.99;100.00;52350.25;5009262;28;20231;-58
2021/05/27 05:22:53;;;;;;;3.17;1.77;;;;;;;-144.99;100.00;52378.78;5009056;28;20215;-58
2021/05/27 05:25:21;;;;;;;3.07;1.67;;;;;;;-144.99;100.00;52317.66;5009148;28;20301;-60
2021/05/27 05:27:50;;;;;;;4.73;2.17;;;;;;;-144.99;100.00;52403.25;5008557;28;20241;-61
2021/05/27 05:30:20;;;;;;;1.70;1.20;;;;;;;-144.99;100.00;52399.19;5012947;28;20378;-59
2021/05/27 05:32:49;;;;;;;5.10;1.87;;;;;;;-144.99;100.00;52362.50;5015632;28;20271;-58
2021/05/27 05:35:17;;;;;;;8.30;2.50;;;;;;;-144.99;100.00;52362.50;5013592;28;20253;-60
2021/05/27 05:37:45;;;;;;;4.20;2.27;;;;;;;-144.99;100.00;52358.41;5012307;28;20234;-60
2021/05/27 05:40:13;;;;;;;7.87;3.33;;;;;;;-144.99;100.00;52374.72;5012708;28;20240;-58
2021/05/27 05:42:40;;;;;;;6.10;2.20;;;;;;;-144.99;100.00;52376.75;5012195;28;20214;-62
2021/05/27 05:45:12;;;;;;;5.43;2.33;;;;;;;-144.99;100.00;52382.88;5011970;28;20673;-61
2021/05/27 05:47:41;;;;;;;13.27;3.00;;;;;;;-144.99;100.00;52350.25;5012091;28;20313;-61
2021/05/27 05:50:08;;;;;;;5.37;2.23;;;;;;;-144.99;100.00;52346.19;5012388;28;20207;-61
2021/05/27 05:52:38;;;;;;;9.30;4.40;;;;;;;-144.99;100.00;52391.03;5012340;28;20237;-62
2021/05/27 05:55:06;;;;;;;5.17;2.83;;;;;;;-144.99;100.00;52354.34;5012286;28;20210;-62
2021/05/27 05:57:35;;;;;;;4.77;2.13;;;;;;;-144.99;100.00;52331.91;5011799;28;20242;-66
2021/05/27 06:00:01;;;;;;;7.70;2.30;;;;;;;-144.99;100.00;52362.50;5011646;28;20230;-59
2021/05/27 06:02:30;;;;;;;7.70;3.03;;;;;;;-144.99;100.00;52354.34;5012461;28;20238;-59
2021/05/27 06:04:59;;;;;;;9.43;3.90;;;;;;;-144.99;100.00;52409.38;5021122;28;20214;-60
2021/05/27 06:07:25;;;;;;;9.10;4.17;;;;;;;-144.99;100.00;52399.19;5012230;28;20237;-59
2021/05/27 06:09:57;;;;;;;9.17;4.47;;;;;;;-144.99;100.00;52325.81;5015940;28;20229;-59
2021/05/27 06:12:27;;;;;;;8.50;5.77;;;;;;;-144.99;100.00;52366.56;5021531;28;20276;-60
2021/05/27 06:14:53;;;;;;;10.43;3.33;;;;;;;-144.99;100.00;52358.41;5000269;28;20691;-59
2021/05/27 06:17:19;;;;;;;10.00;3.67;;;;;;;-144.99;100.00;52378.78;5014254;28;20239;-60
2021/05/27 06:19:45;;;;;;;10.67;2.90;;;;;;;-144.99;100.00;52395.09;5012325;28;20257;-61
2021/05/27 06:22:11;;;;;;;8.90;5.50;;;;;;;-144.99;100.00;52378.78;5012777;28;20298;-61
2021/05/27 06:24:40;;;;;;;19.47;6.93;;;;;;;-144.99;100.00;52374.72;5013002;28;20293;-60
2021/05/27 06:27:06;;;;;;;7.00;2.97;;;;;;;-144.99;100.00;52374.72;5012651;28;20317;-58
2021/05/27 06:29:33;;;;;;;10.27;4.80;;;;;;;-144.99;100.00;52395.09;5015086;28;20830;-59
2021/05/27 06:32:02;;;;;;;6.63;2.63;;;;;;;-144.99;100.00;52350.25;5013632;28;20599;-58
2021/05/27 06:34:37;;;;;;;9.83;4.40;;;;;;;-144.99;100.00;52338.03;5014148;28;20510;-58
2021/05/27 06:37:04;;;;;;;15.13;2.90;;;;;;;-144.99;100.00;52366.56;5012487;28;20287;-58
2021/05/27 06:39:30;;;;;;;11.30;2.50;;;;;;;-144.99;100.00;52352.28;5010873;28;20716;-59
2021/05/27 06:41:56;;;;;;;10.07;3.00;;;;;;;-144.99;100.00;52364.53;5011435;28;20216;-62
2021/05/27 06:44:27;;;;;;;5.63;2.40;;;;;;;-144.99;100.00;52374.72;5010783;28;20215;-63
2021/05/27 06:46:54;;;;;;;8.30;2.47;;;;;;;-144.99;100.00;52354.34;5010506;28;20234;-62
2021/05/27 06:49:21;;;;;;;6.13;3.20;;;;;;;-144.99;100.00;52370.63;5040579;23;20323;-62
2021/05/27 06:51:47;;;;;;;11.80;2.77;;;;;;;-144.99;100.00;52311.53;5071425;28;20208;-61
2021/05/27 06:54:13;;;;;;;6.17;3.43;;;;;;;-144.99;100.00;52358.41;5071370;28;20219;-62
2021/05/27 06:56:39;;;;;;;3.67;2.23;;;;;;;-144.99;100.00;52366.56;5071413;28;20205;-65
2021/05/27 06:59:11;;;;;;;4.97;3.30;;;;;;;-144.99;99.30;52366.56;5070919;28;20208;-65
2021/05/27 07:01:40;;;;;;;3.53;1.57;;;;;;;-144.99;98.68;52338.03;5070416;28;20673;-63
2021/05/27 07:04:12;;;;;;;5.73;1.93;;;;;;;-144.99;97.65;52356.38;5070601;28;20268;-64
2021/05/27 07:06:39;;;;;;;4.77;1.77;;;;;;;-144.99;97.57;52338.03;5075975;28;20208;-64
2021/05/27 07:09:05;;;;;;;5.50;1.60;;;;;;;-144.99;97.21;52325.81;5062927;28;20210;-64
2021/05/27 07:11:32;;;;;;;6.23;3.03;;;;;;;-144.99;96.50;52317.66;5070494;28;20215;-64
2021/05/27 07:14:01;;;;;;;7.33;2.80;;;;;;;-144.99;94.79;52325.81;5070874;28;20284;-64
2021/05/27 07:16:30;;;;;;;8.77;2.20;;;;;;;-144.99;94.07;52346.19;5060744;28;20251;-63
2021/05/27 07:19:01;;;;;;;4.03;2.30;;;;;;;-144.99;93.96;52342.09;5073069;28;20216;-65
2021/05/27 07:21:31;;;;;;;6.80;1.57;;;;;;;-144.99;93.71;52293.19;5075409;28;20228;-63
2021/05/27 07:24:06;;;;;;;3.67;1.53;;;;;;;-144.99;93.03;52317.66;5070735;28;20205;-65
2021/05/27 07:26:32;;;;;;;6.17;2.77;;;;;;;-144.99;92.67;52350.25;5070715;28;20725;-63
2021/05/27 07:29:04;;;;;;;8.87;3.20;;;;;;;-144.99;92.70;52366.56;5070340;28;20312;-64
2021/05/27 07:31:38;;;;;;;4.33;1.80;;;;;;;-144.99;92.02;52346.19;5069624;28;20223;-63
2021/05/27 07:34:06;;;;;;;6.23;2.20;;;;;;;-144.99;92.24;52333.94;5063923;28;20283;-63
2021/05/27 07:36:33;;;;;;;5.23;2.93;;;;;;;-144.99;91.90;52370.63;5069173;28;20236;-64
2021/05/27 07:39:00;;;;;;;5.93;3.70;;;;;;;-144.99;91.37;52287.06;5070409;28;20209;-63
2021/05/27 07:41:28;;;;;;;5.63;2.30;;;;;;;-144.99;90.90;52313.56;5071001;28;20606;-63
2021/05/27 07:44:00;;;;;;;3.87;2.23;;;;;;;-144.99;89.77;52354.34;5069913;28;20208;-65
2021/05/27 07:46:30;;;;;;;4.60;3.43;;;;;;;-144.99;89.28;52325.81;5070482;28;20212;-66
2021/05/27 07:49:02;;;;;;;10.27;2.33;;;;;;;-144.99;87.83;52309.50;5069543;28;20241;-64
2021/05/27 07:51:35;;;;;;;6.63;2.07;;;;;;;-144.99;86.85;52309.50;5068979;28;20207;-64
2021/05/27 07:54:04;;;;;;;4.07;2.03;;;;;;;-144.99;86.65;52313.56;5070585;28;20564;-62
2021/05/27 07:56:30;;;;;;;3.87;2.60;;;;;;;-144.99;85.03;52342.09;5067223;28;20215;-65
2021/05/27 07:58:56;;;;;;;4.13;2.30;;;;;;;-144.99;85.39;52358.41;5065407;28;20201;-64
2021/05/27 08:01:28;;;;;;;4.93;1.93;;;;;;;-144.99;84.77;52382.88;5069106;28;20229;-64
2021/05/27 08:03:57;;;;;;;10.70;2.33;;;;;;;-144.99;83.52;52358.41;5071024;28;20219;-65
2021/05/27 08:06:29;;;;;;;6.97;2.63;;;;;;;-144.99;83.24;52321.72;5070354;28;20468;-65
2021/05/27 08:09:06;;;;;;;5.30;2.50;;;;;;;-144.99;84.22;52309.50;5064239;28;20266;-64
2021/05/27 08:11:38;;;;;;;5.63;2.00;;;;;;;-144.99;83.44;52311.53;5065173;28;20232;-67
2021/05/27 08:14:11;;;;;;;7.87;2.03;;;;;;;-144.99;82.85;52382.88;5067245;28;20288;-65
2021/05/27 08:16:43;;;;;;;2.63;1.30;;;;;;;-144.99;82.99;52338.03;5059808;28;20664;-66
2021/05/27 08:19:17;;;;;;;3.57;2.17;;;;;;;-144.99;82.33;52289.13;5070039;28;20300;-67
2021/05/27 08:21:52;;;;;;;2.93;2.43;;;;;;;-144.99;81.34;52329.88;5068487;28;20257;-66
2021/05/27 08:24:27;;;;;;;4.87;1.77;;;;;;;-144.99;80.88;52297.25;5065973;28;20204;-67
2021/05/27 08:27:01;;;;;;;4.90;2.03;;;;;;;-144.99;80.99;52338.03;5063232;28;20592;-66
2021/05/27 08:29:33;;;;;;;4.37;1.73;;;;;;;-144.99;79.88;52329.88;5069763;28;20263;-66
2021/05/27 08:32:01;;;;;;;3.23;1.80;;;;;;;-144.99;79.72;52301.34;5065534;28;20680;-66
2021/05/27 08:34:31;;;;;;;3.53;1.97;;;;;;;-144.99;80.08;52321.72;5057450;28;20656;-67
2021/05/27 08:37:02;;;;;;;3.67;2.00;;;;;;;-144.99;78.50;52333.94;5069746;28;20316;-67
2021/05/27 08:39:36;;;;;;;9.20;2.10;;;;;;;-144.99;79.57;52262.63;5069756;28;20251;-68
2021/05/27 08:42:02;;;;;;;3.70;2.27;;;;;;;-144.99;79.05;52268.72;5070240;28;20301;-68
2021/05/27 08:44:35;;;;;;;6.30;1.93;;;;;;;-144.99;79.21;52321.72;5065297;28;20198;-68
2021/05/27 08:47:04;;;;;;;2.33;1.70;;;;;;;-144.99;78.40;52333.94;5058359;28;20697;-68
2021/05/27 08:49:38;;;;;;;4.93;2.40;;;;;;;-144.99;77.46;52325.81;5069518;28;20832;-67
2021/05/27 08:52:07;;;;;;;1.93;1.73;;;;;;;-144.99;77.67;52305.41;5069887;28;20367;-68
2021/05/27 08:54:40;;;;;;;3.70;2.20;;;;;;;-144.99;76.93;52293.19;5069299;28;20374;-68
2021/05/27 08:57:12;;;;;;;4.13;2.07;;;;;;;-144.99;76.46;52276.88;5067410;28;20230;-67
2021/05/27 08:59:41;;;;;;;2.60;1.90;;;;;;;-144.99;76.24;52319.69;5069684;28;20233;-67
2021/05/27 09:02:18;;;;;;;5.93;2.60;;;;;;;-144.99;76.09;52313.56;5070004;28;20306;-68
2021/05/27 09:04:50;;;;;;;4.70;2.67;;;;;;;-144.99;76.98;52354.34;5072930;28;20220;-68
2021/05/27 09:07:40;;;;;;;3.77;2.33;;;;;;;-144.99;78.76;52336.00;5073684;28;20646;-67
2021/05/27 09:10:11;;;;;;;2.70;1.80;;;;;;;-144.99;79.72;52325.81;5071017;28;20195;-68
2021/05/27 09:12:40;;;;;;;3.30;2.20;;;;;;;-144.99;80.91;52333.94;5066791;28;20198;-67
2021/05/27 09:15:23;;;;;;;6.20;2.70;;;;;;;-144.99;81.65;52336.00;5065283;28;20218;-68
2021/05/27 09:17:53;;;;;;;4.53;2.77;;;;;;;-144.99;81.03;52297.25;5078710;28;20233;-68
2021/05/27 09:20:26;;;;;;;5.80;3.30;;;;;;;-144.99;81.10;52325.81;5069079;28;20230;-68
2021/05/27 09:23:17;;;;;;;3.17;2.40;;;;;;;-144.99;79.39;52317.66;5068029;28;20245;-66
2021/05/27 09:25:49;;;;;;;5.67;2.77;;;;;;;-144.99;79.63;52321.72;5070565;28;20464;-67
2021/05/27 09:28:21;;;;;;;4.33;1.80;;;;;;;-144.99;79.79;52321.72;5072261;28;20236;-69
2021/05/27 09:30:56;;;;;;;3.50;1.73;;;;;;;-144.99;80.61;52342.09;5071025;28;20220;-67
2021/05/27 09:33:35;;;;;;;3.33;2.27;;;;;;;-144.99;82.19;52346.19;5066053;28;20204;-67
2021/05/27 09:36:12;;;;;;;3.03;1.00;;;;;;;-144.99;83.11;52358.41;5066410;28;20295;-67
2021/05/27 09:38:43;;;;;;;3.40;1.53;;;;;;;-144.99;83.45;52309.50;5069505;28;20230;-68
2021/05/27 09:41:23;;;;;;;3.40;1.70;;;;;;;-144.99;83.72;52376.75;5072997;28;20220;-70
2021/05/27 09:44:18;;;;;;;2.93;1.43;;;;;;;-144.99;84.42;52366.56;5062439;28;20337;-69
2021/05/27 09:46:49;;;;;;;3.10;1.40;;;;;;;-144.99;84.01;52289.13;5068063;28;20201;-68
2021/05/27 09:49:25;;;;;;;2.93;1.43;;;;;;;-144.99;83.78;52309.50;5069265;28;20307;-68
2021/05/27 09:51:58;;;;;;;3.43;1.53;;;;;;;-144.99;83.03;52289.13;5069416;28;20201;-68
2021/05/27 09:54:25;;;;;;;4.83;1.60;;;;;;;-144.99;81.07;52299.31;5071769;28;20208;-68
2021/05/27 09:56:55;;;;;;;2.80;1.27;;;;;;;-144.99;79.57;52319.69;5066172;28;20712;-69
2021/05/27 09:59:37;;;;;;;7.27;1.60;;;;;;;-144.99;77.78;52342.09;5059207;28;20288;-68
2021/05/27 10:02:20;;;;;;;1.40;0.83;;;;;;;-144.99;77.02;52344.16;5072087;28;20288;-68
2021/05/27 10:05:14;;;;;;;1.87;0.73;;;;;;;-144.99;78.79;52329.88;5069424;28;20208;-68
2021/05/27 10:07:45;;;;;;;0.43;0.33;;;;;;;-144.99;79.69;52386.94;5068802;28;20784;-68
2021/05/27 10:10:19;;;;;;;0.93;0.67;;;;;;;-144.99;80.75;52366.56;5070585;28;20293;-68
2021/05/27 10:12:53;;;;;;;1.17;0.50;;;;;;;-144.99;81.69;52350.25;5060015;28;20205;-67
2021/05/27 10:15:26;;;;;;;2.97;1.30;;;;;;;-144.99;82.47;52338.03;5071338;28;20241;-66
2021/05/27 10:18:03;;;;;;;2.07;0.80;;;;;;;-144.99;83.62;52362.50;5072111;28;20607;-69
2021/05/27 10:20:38;;;;;;;1.60;0.90;;;;;;;-144.99;84.03;52317.66;5066229;28;20302;-69
2021/05/27 10:23:13;;;;;;;5.77;1.00;;;;;;;-144.99;83.96;52329.88;5066866;28;20289;-67
2021/05/27 10:25:46;;;;;;;2.47;1.00;;;;;;;-144.99;84.28;52354.34;5072855;28;20212;-73
2021/05/27 10:28:24;;;;;;;1.83;1.10;;;;;;;-144.99;84.09;52364.53;5072410;28;20259;-68
2021/05/27 10:30:56;;;;;;;5.00;1.30;;;;;;;-144.99;83.51;52321.72;5071969;28;20274;-68
2021/05/27 10:33:24;;;;;;;3.07;1.10;;;;;;;-144.99;81.56;52289.13;5067065;28;20240;-68
2021/05/27 10:35:56;;;;;;;4.43;1.20;;;;;;;-144.99;81.80;52293.19;5063159;28;20611;-68
2021/05/27 10:38:48;;;;;;;2.13;0.67;;;;;;;-144.99;78.49;52293.19;5071676;28;20234;-67
2021/05/27 10:41:35;;;;;;;0.70;0.70;;;;;;;-144.99;78.03;52309.50;5070490;28;20234;-71
2021/05/27 10:44:17;;;;;;;3.03;1.00;;;;;;;-144.99;76.86;52305.41;5052075;28;20196;-67
2021/05/27 10:47:19;;;;;;;2.30;0.90;;;;;;;-144.99;76.13;52268.72;5071382;28;20301;-69
2021/05/27 10:50:00;;;;;;;3.17;1.03;;;;;;;-144.99;75.44;52270.78;5071924;28;20263;-68
2021/05/27 10:52:45;;;;;;;3.30;1.07;;;;;;;-144.99;75.33;52260.56;5067984;28;20230;-68
2021/05/27 10:55:54;;;;;;;2.10;1.10;;;;;;;-144.99;72.93;52209.63;5066251;28;20218;-68
2021/05/27 10:58:56;;;;;;;3.63;1.50;;;;;;;-144.99;72.85;52319.69;5065886;28;20582;-68
2021/05/27 11:01:56;;;;;;;2.23;0.60;;;;;;;-144.99;71.39;52291.16;5063184;28;20233;-68
2021/05/27 11:04:41;;;;;;;0.63;0.40;;;;;;;-144.99;73.27;52350.25;5069309;28;20302;-68
2021/05/27 11:07:21;;;;;;;0.43;0.40;;;;;;;-144.99;74.53;52329.88;5070874;28;20239;-67
2021/05/27 11:10:00;;;;;;;5.07;1.47;;;;;;;-144.99;75.31;52325.81;5066259;28;20247;-68
2021/05/27 11:12:28;;;;;;;2.83;0.63;;;;;;;-144.99;75.88;52350.25;5061472;28;20210;-68
2021/05/27 11:15:17;;;;;;;1.50;0.90;;;;;;;-144.99;76.57;52327.84;5071846;28;20730;-68
2021/05/27 11:18:06;;;;;;;1.00;0.80;;;;;;;-144.99;77.30;52350.25;5077164;28;20253;-68
2021/05/27 11:20:41;;;;;;;1.70;0.70;;;;;;;-144.99;77.65;52342.09;5075767;28;20777;-67
2021/05/27 11:23:22;;;;;;;1.63;0.87;;;;;;;-144.99;77.56;52289.13;5075654;28;20241;-68
2021/05/27 11:25:51;;;;;;;2.10;0.73;;;;;;;-144.99;77.04;52317.66;5077475;28;20690;-69
2021/05/27 11:28:40;;;;;;;1.40;0.50;;;;;;;-144.99;75.69;52280.97;5077782;28;20236;-68
2021/05/27 11:31:09;;;;;;;3.97;0.70;;;;;;;-144.99;72.80;52256.50;5076319;28;20206;-68
2021/05/27 11:33:45;;;;;;;3.17;0.83;;;;;;;-144.99;70.82;52305.41;5066343;28;20238;-69
2021/05/27 11:36:29;;;;;;;0.70;0.70;;;;;;;-144.99;69.48;52248.34;5071666;28;20229;-68
2021/05/27 11:38:58;;;;;;;0.93;0.50;;;;;;;-144.99;68.57;52297.25;5065906;28;20244;-72
2021/05/27 11:41:28;;;;;;;3.27;0.97;;;;;;;-144.99;68.52;52313.56;5078920;28;20265;-67
2021/05/27 11:43:59;;;;;;;1.07;0.67;;;;;;;-144.99;68.21;52276.88;5074799;28;20212;-68
2021/05/27 11:46:35;;;;;;;3.23;0.90;;;;;;;-144.99;69.11;52309.50;5067823;28;20228;-67
2021/05/27 11:49:08;;;;;;;4.50;1.47;;;;;;;-144.99;69.48;52276.88;5065943;28;20298;-67
2021/05/27 11:51:41;;;;;;;1.53;0.80;;;;;;;-144.99;69.48;52293.19;5069701;28;20291;-68
2021/05/27 11:54:14;;;;;;;1.97;0.93;;;;;;;-144.99;69.69;52295.22;5069681;28;20789;-68
2021/05/27 11:56:46;;;;;;;1.23;0.90;;;;;;;-144.99;70.83;52317.66;5066948;28;20203;-67
2021/05/27 11:59:21;;;;;;;0.73;0.53;;;;;;;-144.99;69.75;52309.50;5064224;28;20553;-68
2021/05/27 12:01:53;;;;;;;1.70;0.70;;;;;;;-144.99;68.46;52276.88;5070070;28;20228;-69
2021/05/27 12:04:24;;;;;;;2.20;0.63;;;;;;;-144.99;67.74;52289.13;5069448;28;20607;-67
2021/05/27 12:07:01;;;;;;;4.37;0.83;;;;;;;-144.99;67.16;52272.81;5067662;28;20221;-66
2021/05/27 12:09:35;;;;;;;0.87;0.60;;;;;;;-144.99;66.11;52254.47;5067308;28;20204;-68
2021/05/27 12:12:24;;;;;;;2.13;1.00;;;;;;;-144.99;65.37;52246.31;5055330;28;20228;-68
2021/05/27 12:14:58;;;;;;;1.40;0.70;;;;;;;-144.99;63.82;52223.88;5067215;28;20205;-68
2021/05/27 12:17:33;;;;;;;1.13;0.93;;;;;;;-144.99;62.99;52236.13;5057585;28;20232;-68
2021/05/27 12:20:12;;;;;;;3.63;1.17;;;;;;;-144.99;62.73;52280.97;5059515;28;20209;-71
2021/05/27 12:22:56;;;;;;;3.73;1.33;;;;;;;-144.99;63.27;52301.34;5061249;28;20666;-68
2021/05/27 12:25:25;;;;;;;4.67;1.57;;;;;;;-144.99;64.01;52293.19;5063868;28;20685;-69
2021/05/27 12:27:59;;;;;;;6.80;2.13;;;;;;;-144.99;63.90;52293.19;5067562;28;20217;-68
2021/05/27 12:30:30;;;;;;;2.43;0.97;;;;;;;-144.99;64.63;52291.16;5065932;28;20250;-68
2021/05/27 12:33:07;;;;;;;2.40;2.00;;;;;;;-144.99;64.67;52297.25;5067998;28;20336;-68
2021/05/27 12:35:36;;;;;;;5.20;2.70;;;;;;;-144.99;64.91;52264.66;5067553;28;20204;-68
2021/05/27 12:38:05;;;;;;;3.00;1.03;;;;;;;-144.99;64.35;52309.50;5069878;28;20223;-69
2021/05/27 12:40:35;;;;;;;3.57;1.30;;;;;;;-144.99;63.59;52301.34;5072401;28;20228;-69
2021/05/27 12:43:04;;;;;;;3.07;1.20;;;;;;;-144.99;63.03;52289.13;5068628;28;20230;-68
2021/05/27 12:45:38;;;;;;;5.00;1.50;;;;;;;-144.99;62.19;52199.44;5072183;28;20204;-68
2021/05/27 12:48:16;;;;;;;2.47;2.00;;;;;;;-144.99;62.04;52238.16;5071082;28;20248;-68
2021/05/27 12:50:59;;;;;;;4.23;1.40;;;;;;;-144.99;60.12;52248.34;5069658;28;20243;-68
2021/05/27 12:53:28;;;;;;;5.47;1.40;;;;;;;-144.99;59.06;52264.66;5065962;28;20213;-68
2021/05/27 12:55:55;;;;;;;6.67;1.47;;;;;;;-144.99;58.76;52297.25;5069378;28;20205;-68
2021/05/27 12:58:30;;;;;;;2.87;1.27;;;;;;;-144.99;58.47;52280.97;5068846;28;20319;-70
2021/05/27 13:00:57;;;;;;;1.90;1.10;;;;;;;-144.99;57.26;52309.50;5067192;28;20279;-67
2021/05/27 13:03:24;;;;;;;2.50;0.80;;;;;;;-144.99;58.32;52333.94;5070247;28;20273;-67
2021/05/27 13:06:19;;;;;;;4.13;1.10;;;;;;;-144.99;59.17;52319.69;5070161;28;21030;-67
2021/05/27 13:08:46;;;;;;;1.53;0.90;;;;;;;-144.99;59.15;52321.72;5066582;28;20648;-69
2021/05/27 13:11:37;;;;;;;1.93;0.97;;;;;;;-144.99;59.82;52325.81;5067763;28;20255;-67
2021/05/27 13:14:12;;;;;;;2.37;1.07;;;;;;;-144.99;61.27;52350.25;5072677;28;20209;-68
2021/05/27 13:16:41;;;;;;;3.03;1.27;;;;;;;-144.99;61.73;52321.72;5070187;28;20208;-68
2021/05/27 13:19:10;;;;;;;2.07;0.67;;;;;;;-144.99;62.88;52354.34;5071853;28;20204;-68
2021/05/27 13:21:42;;;;;;;1.37;0.80;;;;;;;-144.99;62.92;52342.09;5074131;28;20594;-67
2021/05/27 13:24:16;;;;;;;1.10;0.60;;;;;;;-144.99;63.12;52329.88;5072343;28;20292;-68
2021/05/27 13:26:42;;;;;;;2.83;0.70;;;;;;;-144.99;64.18;52325.81;5072308;28;20201;-67
2021/05/27 13:29:09;;;;;;;1.63;1.07;;;;;;;-144.99;64.76;52346.19;5072393;28;20212;-68
2021/05/27 13:31:36;;;;;;;2.00;1.13;;;;;;;-144.99;65.68;52305.41;5067135;28;20288;-67
2021/05/27 13:34:03;;;;;;;3.43;1.40;;;;;;;-144.99;66.83;52346.19;5068210;28;20304;-69
2021/05/27 13:36:30;;;;;;;5.27;2.70;;;;;;;-144.99;67.95;52346.19;5066568;28;20670;-68
2021/05/27 13:38:57;;;;;;;7.03;1.33;;;;;;;-144.99;69.78;52317.66;5066546;28;20201;-69
2021/05/27 13:41:26;;;;;;;4.40;1.20;;;;;;;-144.99;71.02;52338.03;5067167;28;20664;-68
2021/05/27 13:43:53;;;;;;;2.10;1.50;;;;;;;-144.99;72.04;52368.59;5067546;28;20668;-69
2021/05/27 13:46:19;;;;;;;1.60;0.90;;;;;;;-144.99;72.38;52431.78;5067565;28;20244;-68